Mona, UT (84645)

3:40 PM MDT on October 25, 2014 (GMT -0600)
MesoWest Goshen UT US FGNet | Change Station
CLOSE
Current Station
Personal Weather Station
Location: Goshen, UT
Elevation: 4762 ft
Nearby Weather Stations

Elev 4762 ft 39.92 °N, 111.88 °W | Updated 40 minutes ago

Clear
Clear
78 °F
Feels Like 77 °F
N
9
Wind Variable Wind from SSW
Gusts 13.0 mph

Today
High -- | Low -- °F
--% Chance of Precip.
Yesterday
High -- | Low -- °F
Precip. -- in
7:48 AM 6:33 PM
Waxing Crescent, 4% visible
Pressure 30.05 in
Visibility 15.0 miles
Clouds Mostly Cloudy 12000 ft
Heat Index 77 °F
Dew Point 33 °F
Humidity 19%
Rainfall -999.00 in
Snow Depth Not available.
UV 2 out of 12
Pollen 2.00 out of 12
Air Quality Not available.
Flu Activity Sporadic
METAR KPVU 252047Z 00000KT 15SM BKN120 23/02 A3005

More Conditions Fewer Conditions

Pressure 30.05 in
Visibility 15.0 miles
Clouds Mostly Cloudy 12000 ft
Heat Index 77 °F
Dew Point 33 °F
Humidity 19%
Rainfall -999.00 in
Snow Depth Not available.
UV 2 out of 12
Pollen 2.00 out of 12
Air Quality Not available.
Flu Activity Sporadic
METAR KPVU 252047Z 00000KT 15SM BKN120 23/02 A3005

More Conditions Fewer Conditions

10-Day Weather Forecast

Almanac

Astronomy

Oct. 25, 2014 Rise Set
Actual Time 7:48 AM MDT 6:33 PM MDT
Civil Twilight 7:20 AM MDT 7:01 PM MDT
Nautical Twilight 6:49 AM MDT 7:33 PM MDT
Astronomical Twilight 6:17 AM MDT 8:04 PM MDT
Moon 9:30 AM MDT 7:59 PM MDT
Length of Visible Light 11h 40m
Length of Day
10h 45m
Tomorrow will be 2m 23s shorter.
Waxing Crescent, 4% of the Moon is Illuminated
Today
Waxing Crescent
Oct 30
First Quarter
Nov 6
Full
Nov 14
Last Quarter
Nov 22
New

Today's Extremes

State Highs State Lows

Community

WunderPhotos

Upload Photos

1,765,007 photos uploaded!

Nearby

Snow Depth

Station Depth Elevation
Clear Creek #2 0 in 8300 ft
Cascade Mountain 0 in 7768 ft
Daniels-Strawberry 0 in 8000 ft
Dry Fork 0 in 7160 ft
Farnsworth Lake 0 in 9600 ft

Earthquake Activity

City Distance Mag. Time & Date
No recent earthquake activity has been reported nearby.
Minimum magnitude displayed is 2.5.

Coastal Water Temperatures

Place Temperature
No Stations Reporting

Nearby Weather Stations